Flight Track Log - Related Links

Times and Time Zones

All times are in EDT time to prevent confusion due to time zone crossing. See the DAL1515 flight status page for this flight to view local times or setup timezone preferences in your user account.

Time Position Orientation Groundspeed Altitude Reporting Facility
EDT Latitude Longitude Course Direction KTS MPH feet Rate Location/Type
Thu 08:09:00 PM 33.6500 -84.4500 North 154 177 2,300  Level Atlanta TRACON
Thu 08:10:00 PM 33.6667 -84.5167 287° West 252 290 4,000 2,350 Climbing Atlanta TRACON
Thu 08:11:00 PM 33.7167 -84.5833 312° West 296 341 7,000 2,455 Climbing Atlanta TRACON
Thu 08:12:56 PM 33.8642 -84.5342 15° North 307 353 11,200 2,523 Climbing Atlanta Center
Thu 08:13:56 PM 33.9731 -84.4697 26° Northeast 346 398 14,400 2,800 Climbing Atlanta Center
Thu 08:14:00 PM 34.1638 -84.2667 North  Level FlightAware Approximate
Thu 08:14:56 PM 34.0631 -84.4150 27° Northeast 366 421 16,800  Level Atlanta Center
Thu 08:15:56 PM 34.1736 -84.3500 26° Northeast 417 480 19,000 2,100 Climbing Atlanta Center
Thu 08:16:56 PM 34.2803 -84.2903 25° Northeast 429 494 21,000 1,950 Climbing Atlanta Center
Thu 08:17:56 PM 34.4036 -84.2553 13° North 434 499 22,900 1,700 Climbing Atlanta Center
Thu 08:18:56 PM 34.5119 -84.2303 11° North 439 505 24,400 1,800 Climbing Atlanta Center
Thu 08:19:56 PM 34.6372 -84.2003 11° North 448 516 26,500 2,150 Climbing Atlanta Center
Thu 08:20:56 PM 34.7689 -84.1703 11° North 443 510 28,700 2,000 Climbing Atlanta Center
Thu 08:21:56 PM 34.8900 -84.1425 11° North 443 510 30,500 1,650 Climbing Atlanta Center
Thu 08:22:56 PM 35.0089 -84.1122 12° North 443 510 32,000 1,300 Climbing Atlanta Center
Thu 08:23:56 PM 35.1300 -84.0819 12° North 438 504 33,100 1,250 Climbing Atlanta Center
Thu 08:24:56 PM 35.2489 -84.0539 11° North 438 504 34,500 1,200 Climbing Atlanta Center
Thu 08:25:56 PM 35.3656 -84.0261 11° North 427 491 35,500 900 Climbing Atlanta Center
Thu 08:26:56 PM 35.4825 -83.9981 11° North 427 491 36,300 750 Climbing Atlanta Center
Thu 08:27:56 PM 35.5889 -83.9725 11° North 427 491 37,000 350 Climbing Atlanta Center
Thu 08:28:56 PM 35.7058 -83.9442 11° North 427 491 37,000  Level Atlanta Center
Thu 08:29:56 PM 35.8206 -83.9158 11° North 427 491 37,000  Level Atlanta Center
Thu 08:30:56 PM 35.9350 -83.8772 15° North 427 491 37,000  Level Atlanta Center
Thu 08:31:56 PM 36.0414 -83.8103 27° Northeast 422 486 37,000  Level Atlanta Center
Thu 08:32:56 PM 36.1475 -83.7431 27° Northeast 422 486 37,000  Level Atlanta Center
Thu 08:33:37 PM 36.2147 -83.6956 30° Northeast 432 497 37,000  Level Indianapolis Center
Thu 08:34:39 PM 36.3431 -83.6136 27° Northeast 433 498 37,000  Level Indianapolis Center
Thu 08:35:40 PM 36.4481 -83.5458 27° Northeast 427 491 37,000  Level Indianapolis Center
Thu 08:36:42 PM 36.5575 -83.4789 26° Northeast 434 499 37,000  Level Indianapolis Center
Thu 08:37:43 PM 36.6608 -83.4042 30° Northeast 430 495 37,000  Level Indianapolis Center
Thu 08:38:45 PM 36.7572 -83.3131 37° Northeast 434 499 37,000  Level Indianapolis Center
Thu 08:39:46 PM 36.8542 -83.2222 37° Northeast 433 498 37,000  Level Indianapolis Center
Thu 08:40:48 PM 36.9522 -83.1306 37° Northeast 432 497 37,000  Level Indianapolis Center
Thu 08:41:49 PM 37.0517 -83.0356 37° Northeast 439 505 37,000  Level Indianapolis Center
Thu 08:42:51 PM 37.1514 -82.9414 37° Northeast 440 506 37,000  Level Indianapolis Center
Thu 08:43:52 PM 37.2472 -82.8475 38° Northeast 435 501 37,000  Level Indianapolis Center
Thu 08:44:54 PM 37.3453 -82.7547 37° Northeast 438 504 37,000  Level Indianapolis Center
Thu 08:45:55 PM 37.4583 -82.6469 37° Northeast 435 501 37,000  Level Indianapolis Center
Thu 08:46:57 PM 37.5547 -82.5531 38° Northeast 435 501 37,000  Level Indianapolis Center
Thu 08:47:58 PM 37.6517 -82.4564 38° Northeast 441 507 37,000  Level Indianapolis Center
Thu 08:49:00 PM 37.7503 -82.3592 38° Northeast 447 514 37,000  Level Indianapolis Center
Thu 08:50:01 PM 37.8486 -82.2628 38° Northeast 444 511 37,000  Level Indianapolis Center
Thu 08:51:03 PM 37.9514 -82.1631 37° Northeast 445 512 37,000  Level Indianapolis Center
Thu 08:52:04 PM 38.0500 -82.0667 38° Northeast 447 514 37,000  Level Indianapolis Center
Thu 08:53:06 PM 38.1475 -81.9694 38° Northeast 446 513 37,000  Level Indianapolis Center
Thu 08:54:07 PM 38.2458 -81.8728 38° Northeast 447 514 37,000  Level Indianapolis Center
Thu 08:55:08 PM 38.3436 -81.7739 38° Northeast 448 516 37,000  Level Indianapolis Center
Thu 08:56:10 PM 38.4278 -81.6567 47° Northeast 449 517 37,000  Level Indianapolis Center
Thu 08:57:11 PM 38.5103 -81.5389 48° Northeast 449 517 37,000  Level Indianapolis Center
Thu 08:58:12 PM 38.6072 -81.3972 49° Northeast 452 520 37,000  Level Indianapolis Center
Thu 08:59:14 PM 38.6906 -81.2803 48° Northeast 453 521 37,000  Level Indianapolis Center
Thu 09:00:15 PM 38.7739 -81.1633 48° Northeast 449 517 37,000  Level Indianapolis Center
Thu 09:01:16 PM 38.8561 -81.0436 49° Northeast 447 514 37,000  Level Indianapolis Center
Thu 09:02:18 PM 38.9400 -80.9231 48° Northeast 454 522 37,000  Level Indianapolis Center
Thu 09:03:19 PM 39.0219 -80.8022 49° Northeast 449 517 37,000  Level Indianapolis Center
Thu 09:04:20 PM 39.1067 -80.6853 47° Northeast 447 514 37,000  Level Indianapolis Center
Thu 09:05:22 PM 39.2081 -80.5433 47° Northeast 449 517 37,000  Level Indianapolis Center
Thu 09:06:23 PM 39.2947 -80.4233 47° Northeast 454 522 37,000  Level Indianapolis Center
Thu 09:07:24 PM 39.3772 -80.3036 48° Northeast 449 517 37,000  Level Indianapolis Center
Thu 09:08:26 PM 39.4608 -80.1844 48° Northeast 448 516 37,000  Level Indianapolis Center
Thu 09:09:15 PM 39.5408 -80.0797 45° Northeast 442 509 37,000  Level Cleveland Center
Thu 09:10:15 PM 39.6214 -79.9606 49° Northeast 442 509 37,000  Level Cleveland Center
Thu 09:11:15 PM 39.7019 -79.8411 49° Northeast 442 509 37,000  Level Cleveland Center
Thu 09:12:15 PM 39.7825 -79.7186 49° Northeast 442 509 37,000  Level Cleveland Center
Thu 09:13:15 PM 39.8669 -79.5986 47° Northeast 437 503 37,000  Level Cleveland Center
Thu 09:14:15 PM 39.9472 -79.4783 49° Northeast 437 503 37,000  Level Cleveland Center
Thu 09:15:15 PM 40.0292 -79.3522 50° Northeast 437 503 37,000  Level Cleveland Center
Thu 09:16:15 PM 40.1072 -79.2339 49° Northeast 437 503 37,000  Level Cleveland Center
Thu 09:17:15 PM 40.1911 -79.1100 48° Northeast 437 503 37,000  Level Cleveland Center
Thu 09:18:15 PM 40.2708 -78.9858 50° Northeast 437 503 37,000  Level Cleveland Center
Thu 09:19:15 PM 40.3522 -78.8639 49° Northeast 437 503 37,000  Level Cleveland Center
Thu 09:20:15 PM 40.4358 -78.7392 49° Northeast 437 503 37,000  Level Cleveland Center
Thu 09:21:15 PM 40.5172 -78.6139 49° Northeast 437 503 37,000  Level Cleveland Center
Thu 09:22:15 PM 40.5983 -78.4883 50° Northeast 437 503 37,000  Level Cleveland Center
Thu 09:24:45 PM 40.7936 -78.1892 49° Northeast 447 514 37,000 -29 Level New York Center
Thu 09:25:45 PM 40.8814 -78.0503 50° Northeast 453 521 36,900 -350 Descending New York Center
Thu 09:26:45 PM 40.9642 -77.9244 49° Northeast 448 516 36,300 -650 Descending New York Center
Thu 09:27:45 PM 41.0483 -77.8039 47° Northeast 448 516 35,600 -1,400 Descending New York Center
Thu 09:28:45 PM 41.1325 -77.6831 47° Northeast 448 516 33,500 -2,100 Descending New York Center
Thu 09:29:45 PM 41.2189 -77.5594 47° Northeast 448 516 31,400 -2,100 Descending New York Center
Thu 09:30:45 PM 41.3008 -77.4378 48° Northeast 448 516 29,300 -1,200 Descending New York Center
Thu 09:31:45 PM 41.3803 -77.3211 48° Northeast 437 503 29,000 -150 Descending New York Center
Thu 09:32:45 PM 41.4619 -77.1992 48° Northeast 437 503 29,000  Level New York Center
Thu 09:33:45 PM 41.5344 -77.0897 48° Northeast 443 510 29,000  Level New York Center
Thu 09:36:14 PM 41.7342 -76.7906 48° Northeast 441 507 29,000  Level Boston Center
Thu 09:37:14 PM 41.8144 -76.6683 49° Northeast 436 502 29,000  Level Boston Center
Thu 09:38:15 PM 41.8947 -76.5464 48° Northeast 434 499 29,000 -720 Level Boston Center
Thu 09:39:19 PM 41.9742 -76.4269 48° Northeast 427 491 27,500 -1,869 Descending Boston Center
Thu 09:40:17 PM 42.0478 -76.3139 49° Northeast 407 468 25,200 -1,721 Descending Boston Center
Thu 09:41:21 PM 42.1189 -76.2058 48° Northeast 389 448 24,000 -581 Descending Boston Center
Thu 09:42:21 PM 42.1833 -76.0914 53° Northeast 388 447 24,000  Level Boston Center
Thu 09:43:23 PM 42.2378 -75.9239 66° East 404 465 24,000  Level Boston Center
Thu 09:44:23 PM 42.2833 -75.7906 65° Northeast 396 456 24,000  Level Boston Center
Thu 09:45:24 PM 42.3272 -75.6522 67° East 389 448 24,000  Level Boston Center
Thu 09:46:25 PM 42.3589 -75.5094 73° East 399 459 24,000  Level Boston Center
Thu 09:47:26 PM 42.3922 -75.3647 73° East 407 468 24,000 -246 Level Boston Center
Thu 09:48:27 PM 42.4264 -75.2203 72° East 411 473 23,500 -1,488 Descending Boston Center
Thu 09:49:27 PM 42.4600 -75.0775 72° East 405 466 21,000 -2,667 Descending Boston Center
Thu 09:50:15 PM 42.4869 -74.9494 74° East 394 453 18,700 -2,462 Descending Boston Center
Thu 09:50:45 PM 42.5011 -74.8875 73° East 384 442 17,800 -2,211 Descending Boston Center
Thu 09:51:31 PM 42.5269 -74.7914 70° East 378 435 15,900 -2,355 Descending Boston Center
Thu 09:52:32 PM 42.5572 -74.6592 73° East 364 419 13,600 -2,083 Descending Boston Center
Thu 09:53:32 PM 42.5578 -74.5303 90° East 350 403 11,700 -1,537 Descending Boston Center
Thu 09:54:33 PM 42.5442 -74.4139 99° East 317 365 10,500 -1,339 Descending Boston Center
Thu 09:55:33 PM 42.5306 -74.2961 99° East 295 339 9,000 -1,587 Descending Boston Center
Thu 09:56:34 PM 42.5181 -74.1919 99° East 282 325 7,300 -1,721 Descending Boston Center
Thu 09:57:35 PM 42.5206 -74.0881 88° East 275 316 5,500 -1,707 Descending Boston Center
Thu 09:58:37 PM 42.5319 -73.9886 81° East 270 311 3,800 -1,220 Descending Boston Center
Thu 09:59:38 PM 42.5631 -73.9006 64° Northeast 263 303 3,000 -650 Descending Boston Center
Thu 10:00:37 PM 42.5928 -73.8206 63° Northeast 218 251 2,500 -500 Descending Boston Center
Thu 10:01:38 PM 42.6361 -73.8006 19° North 173 199 2,000 -541 Descending Boston Center
Thu 10:02:39 PM 42.6800 -73.8022 358° North 162 186 1,400 -581 Descending Boston Center
Thu 10:03:42 PM 42.7111 -73.8039 358° North 118 136 800 -581 Descending Boston Center
Thu 10:04:43 PM 42.7442 -73.8067 356° North 119 137 200 -590 Descending Boston Center

Login

Don't have an account? Register now (free) for customized features, flight alerts, and more!